createdAt,value
2023-07-19T00:00:13.061Z,78.70
2023-07-19T00:02:41.206Z,78.50
2023-07-19T00:05:10.586Z,78.60
2023-07-19T00:07:38.569Z,78.80
2023-07-19T00:10:07.750Z,79.10
2023-07-19T00:12:42.458Z,79.30
2023-07-19T00:15:19.893Z,79.10
2023-07-19T00:17:47.786Z,79.10
2023-07-19T00:20:16.341Z,79.00
2023-07-19T00:22:44.235Z,79.10
2023-07-19T00:25:12.307Z,79.20
2023-07-19T00:27:40.294Z,79.40
2023-07-19T00:30:09.802Z,79.50
2023-07-19T00:32:39.075Z,79.80
2023-07-19T00:35:08.578Z,80.00
2023-07-19T00:37:37.231Z,80.20
2023-07-19T00:40:06.052Z,80.80
2023-07-19T00:42:34.473Z,81.00
2023-07-19T00:45:02.608Z,81.10
2023-07-19T00:47:31.065Z,81.30
2023-07-19T00:50:00.331Z,81.40
2023-07-19T00:52:28.631Z,81.40
2023-07-19T00:54:56.963Z,81.60
2023-07-19T00:57:25.340Z,81.80
2023-07-19T00:59:53.970Z,81.80
2023-07-19T01:02:22.478Z,81.60
2023-07-19T01:04:50.775Z,81.60
2023-07-19T01:07:20.377Z,81.80
2023-07-19T01:09:49.997Z,81.80
2023-07-19T01:12:18.445Z,81.90
2023-07-19T01:14:46.282Z,82.00
2023-07-19T01:17:14.093Z,82.00
2023-07-19T01:19:41.930Z,82.00
2023-07-19T01:22:10.360Z,82.10
2023-07-19T01:24:41.269Z,82.00
2023-07-19T01:27:21.793Z,82.00
2023-07-19T01:29:51.048Z,82.10
2023-07-19T01:32:19.544Z,82.10
2023-07-19T01:34:47.591Z,82.20
2023-07-19T01:37:15.557Z,82.20
2023-07-19T01:39:45.847Z,82.10
2023-07-19T01:42:14.017Z,82.20
2023-07-19T01:44:41.917Z,82.10
2023-07-19T01:47:10.120Z,82.10
2023-07-19T01:49:40.581Z,82.10
2023-07-19T01:52:09.114Z,82.20
2023-07-19T01:54:37.066Z,82.30
2023-07-19T01:57:07.818Z,82.70
2023-07-19T01:59:36.012Z,82.80
2023-07-19T02:02:04.037Z,82.80
2023-07-19T02:04:32.309Z,82.90
2023-07-19T02:07:00.424Z,82.80
2023-07-19T02:09:28.391Z,82.70
2023-07-19T02:11:56.566Z,82.90
2023-07-19T02:14:26.229Z,83.00
2023-07-19T02:16:54.140Z,83.20
2023-07-19T02:19:22.032Z,83.40
2023-07-19T02:21:50.147Z,83.40
2023-07-19T02:24:18.258Z,83.50
2023-07-19T02:26:46.213Z,83.40
2023-07-19T02:29:14.123Z,83.40
2023-07-19T02:31:43.468Z,83.40
2023-07-19T02:34:11.437Z,83.30
2023-07-19T02:36:39.589Z,83.10
2023-07-19T02:39:07.767Z,82.60
2023-07-19T02:41:35.968Z,82.60
2023-07-19T02:44:04.178Z,82.60
2023-07-19T02:46:32.553Z,81.90
2023-07-19T02:49:02.170Z,81.10
2023-07-19T02:51:30.472Z,80.30
2023-07-19T02:53:58.742Z,79.70
2023-07-19T02:56:26.660Z,80.00
2023-07-19T02:58:54.567Z,79.00
2023-07-19T03:01:22.680Z,78.90
2023-07-19T03:03:51.312Z,78.60
2023-07-19T03:06:20.986Z,79.10
2023-07-19T03:08:48.916Z,79.10
2023-07-19T03:11:16.819Z,79.10
2023-07-19T03:13:44.696Z,79.20
2023-07-19T03:16:12.690Z,79.10
2023-07-19T03:18:40.628Z,79.00
2023-07-19T03:21:08.631Z,79.00
2023-07-19T03:23:38.052Z,78.80
2023-07-19T03:26:05.904Z,78.60
2023-07-19T03:28:33.850Z,78.40
2023-07-19T03:31:01.828Z,78.60
2023-07-19T03:33:29.772Z,78.50
2023-07-19T03:35:57.720Z,78.70
2023-07-19T03:38:25.666Z,78.90
2023-07-19T03:40:54.926Z,78.90
2023-07-19T03:43:22.832Z,78.90
2023-07-19T03:45:51.077Z,78.90
2023-07-19T03:48:18.939Z,79.00
2023-07-19T03:50:46.878Z,79.30
2023-07-19T03:53:14.858Z,79.20
2023-07-19T03:55:42.745Z,79.30
2023-07-19T03:58:12.062Z,79.30
2023-07-19T04:00:39.974Z,79.40
2023-07-19T04:03:07.979Z,79.50
2023-07-19T04:05:36.148Z,79.70
2023-07-19T04:08:05.114Z,79.80
2023-07-19T04:10:33.039Z,79.90
2023-07-19T04:13:00.894Z,80.10
2023-07-19T04:15:30.126Z,80.00
2023-07-19T04:17:58.545Z,79.80
2023-07-19T04:20:27.448Z,79.80
2023-07-19T04:22:55.419Z,79.70
2023-07-19T04:25:25.544Z,80.00
2023-07-19T04:27:53.722Z,80.50
2023-07-19T04:30:21.738Z,80.10
2023-07-19T04:32:52.549Z,80.50
2023-07-19T04:35:20.800Z,80.20
2023-07-19T04:37:49.181Z,80.10
2023-07-19T04:40:17.309Z,80.30
2023-07-19T04:42:45.301Z,80.20
2023-07-19T04:45:14.604Z,79.90
2023-07-19T04:47:42.887Z,79.70
2023-07-19T04:50:12.967Z,79.50
2023-07-19T04:52:40.875Z,79.40
2023-07-19T04:55:10.245Z,79.10
2023-07-19T04:57:38.197Z,79.40
2023-07-19T05:00:12.689Z,79.20
2023-07-19T05:02:40.984Z,78.70
2023-07-19T05:05:10.462Z,78.20
2023-07-19T05:07:40.582Z,77.90
2023-07-19T05:10:10.099Z,77.80
2023-07-19T05:12:38.008Z,77.30
2023-07-19T05:15:06.956Z,77.40
2023-07-19T05:17:35.064Z,77.30
2023-07-19T05:20:03.376Z,77.00
2023-07-19T05:22:31.807Z,77.20
2023-07-19T05:25:01.262Z,77.60
2023-07-19T05:27:29.250Z,78.10
2023-07-19T05:29:57.196Z,77.60
2023-07-19T05:32:25.670Z,77.80
2023-07-19T05:34:53.670Z,76.60
2023-07-19T05:37:21.826Z,76.00
2023-07-19T05:39:51.196Z,75.10
2023-07-19T05:42:20.432Z,74.70
2023-07-19T05:44:48.310Z,74.30
2023-07-19T05:47:16.472Z,73.90
2023-07-19T05:49:44.544Z,74.00
2023-07-19T05:52:13.145Z,73.10
2023-07-19T05:54:40.982Z,73.80
2023-07-19T05:57:08.874Z,73.50
2023-07-19T05:59:38.099Z,74.70
2023-07-19T06:02:06.647Z,74.40
2023-07-19T06:04:34.671Z,71.90
2023-07-19T06:07:02.909Z,70.70
2023-07-19T06:09:31.571Z,72.20
2023-07-19T06:12:01.064Z,72.00
2023-07-19T06:14:28.966Z,71.40
2023-07-19T06:16:58.485Z,71.80
2023-07-19T06:19:26.638Z,72.40
2023-07-19T06:21:54.617Z,71.30
2023-07-19T06:24:22.465Z,72.20
2023-07-19T06:26:50.385Z,70.70
2023-07-19T06:29:18.468Z,71.80
2023-07-19T06:31:46.404Z,70.50
2023-07-19T06:34:15.663Z,69.50
2023-07-19T06:36:43.662Z,68.90
2023-07-19T06:39:11.531Z,67.40
2023-07-19T06:41:39.396Z,67.20
2023-07-19T06:44:07.382Z,68.20
2023-07-19T06:46:35.450Z,67.70
2023-07-19T06:49:03.381Z,68.60
2023-07-19T06:51:32.802Z,68.30
2023-07-19T06:54:09.256Z,68.50
2023-07-19T06:56:43.062Z,69.80
2023-07-19T06:59:11.206Z,69.00
2023-07-19T07:01:39.436Z,66.60
2023-07-19T07:04:08.633Z,66.00
2023-07-19T07:06:38.096Z,65.30
2023-07-19T07:09:06.026Z,66.30
2023-07-19T07:11:33.941Z,65.10
2023-07-19T07:14:01.687Z,63.60
2023-07-19T07:16:30.228Z,65.90
2023-07-19T07:18:58.160Z,65.90
2023-07-19T07:21:26.205Z,65.00
2023-07-19T07:23:55.481Z,65.30
2023-07-19T07:26:23.705Z,64.70
2023-07-19T07:28:52.081Z,63.30
2023-07-19T07:31:20.186Z,63.70
2023-07-19T07:33:48.390Z,62.50
2023-07-19T07:36:16.623Z,61.70
2023-07-19T07:38:45.042Z,63.50
2023-07-19T07:41:14.305Z,66.10
2023-07-19T07:43:42.521Z,62.30
2023-07-19T07:46:10.578Z,62.30
2023-07-19T07:48:38.547Z,61.40
2023-07-19T07:51:06.482Z,61.20
2023-07-19T07:53:34.214Z,61.10
2023-07-19T07:56:02.041Z,60.50
2023-07-19T07:58:34.044Z,57.00
2023-07-19T08:01:01.865Z,59.10
2023-07-19T08:03:29.786Z,60.50
2023-07-19T08:05:57.556Z,57.00
2023-07-19T08:08:25.499Z,58.00
2023-07-19T08:10:53.277Z,56.60
2023-07-19T08:13:21.009Z,54.20
2023-07-19T08:15:50.139Z,54.50
2023-07-19T08:18:17.906Z,53.20
2023-07-19T08:20:45.697Z,54.60
2023-07-19T08:23:13.437Z,52.00
2023-07-19T08:25:42.863Z,55.00
2023-07-19T08:28:10.580Z,53.50
2023-07-19T08:30:38.319Z,53.80
2023-07-19T08:33:09.802Z,51.00
2023-07-19T08:35:37.805Z,52.40
2023-07-19T08:38:05.613Z,51.10
2023-07-19T08:40:33.768Z,54.00
2023-07-19T08:43:07.043Z,52.60
2023-07-19T08:45:37.377Z,54.30
2023-07-19T08:48:05.301Z,54.10
2023-07-19T08:50:36.248Z,53.20
2023-07-19T08:53:04.131Z,52.60
2023-07-19T08:55:33.044Z,52.60
2023-07-19T08:58:01.298Z,54.10
2023-07-19T09:00:33.066Z,54.20
2023-07-19T09:03:00.901Z,52.50
2023-07-19T09:05:29.426Z,52.10
2023-07-19T09:08:00.695Z,51.00
2023-07-19T09:10:28.471Z,52.50
2023-07-19T09:12:56.997Z,54.40
2023-07-19T09:15:24.965Z,52.80
2023-07-19T09:17:53.049Z,51.40
2023-07-19T09:20:20.880Z,50.60
2023-07-19T09:22:48.909Z,51.30
2023-07-19T09:25:18.033Z,51.50
2023-07-19T09:27:45.735Z,51.20
2023-07-19T09:30:14.764Z,50.80
2023-07-19T09:32:42.578Z,50.90
2023-07-19T09:35:10.699Z,51.60
2023-07-19T09:37:38.461Z,51.10
2023-07-19T09:40:06.964Z,51.60
2023-07-19T09:42:37.097Z,53.00
2023-07-19T09:45:05.162Z,51.30
2023-07-19T09:47:35.092Z,53.20
2023-07-19T09:50:03.365Z,49.40
2023-07-19T09:52:31.171Z,47.80
2023-07-19T09:54:58.909Z,48.10
2023-07-19T09:57:28.269Z,48.80
2023-07-19T09:59:57.772Z,48.30
2023-07-19T10:02:26.084Z,48.10
2023-07-19T10:04:53.871Z,47.20
2023-07-19T10:07:22.535Z,47.20
2023-07-19T10:09:51.666Z,46.90
2023-07-19T10:12:26.538Z,48.00
2023-07-19T10:14:55.202Z,47.60
2023-07-19T10:17:25.703Z,46.70
2023-07-19T10:20:06.406Z,47.80
2023-07-19T10:22:50.840Z,50.80
2023-07-19T10:25:22.167Z,48.80
2023-07-19T10:28:03.171Z,46.50
2023-07-19T10:30:47.130Z,47.80
2023-07-19T10:33:17.383Z,49.20
2023-07-19T10:35:45.637Z,48.40
2023-07-19T10:38:16.557Z,46.80
2023-07-19T10:40:45.132Z,46.60
2023-07-19T10:43:12.903Z,48.30
2023-07-19T10:45:40.690Z,48.00
2023-07-19T10:48:10.405Z,50.60
2023-07-19T10:50:40.024Z,48.10
2023-07-19T10:53:08.159Z,52.10
2023-07-19T10:55:52.922Z,54.50
2023-07-19T10:58:22.196Z,49.20
2023-07-19T11:00:50.002Z,48.90
2023-07-19T11:03:18.270Z,50.10
2023-07-19T11:05:48.962Z,49.80
2023-07-19T11:08:22.962Z,48.80
2023-07-19T11:10:51.001Z,51.70
2023-07-19T11:13:19.521Z,48.70
2023-07-19T11:15:50.813Z,50.00
2023-07-19T11:18:24.948Z,48.00
2023-07-19T11:20:54.212Z,48.50
2023-07-19T11:23:21.964Z,47.20
2023-07-19T11:25:50.120Z,48.10
2023-07-19T11:28:32.687Z,47.00
2023-07-19T11:31:04.547Z,43.10
2023-07-19T11:33:35.412Z,45.70
2023-07-19T11:36:07.778Z,43.70
2023-07-19T11:38:39.010Z,43.80
2023-07-19T11:41:06.996Z,44.90
2023-07-19T11:43:35.052Z,45.70
2023-07-19T11:46:02.930Z,44.60
2023-07-19T11:48:31.111Z,47.60
2023-07-19T11:50:58.961Z,46.30
2023-07-19T11:53:29.954Z,43.70
2023-07-19T11:58:43.424Z,48.80
2023-07-19T12:01:13.192Z,45.70
2023-07-19T12:03:41.299Z,46.70
2023-07-19T12:06:10.525Z,46.40
2023-07-19T12:08:39.923Z,48.00
2023-07-19T12:11:08.186Z,46.90
2023-07-19T12:13:36.673Z,49.60
2023-07-19T12:16:04.625Z,46.60
2023-07-19T12:18:32.759Z,48.90
2023-07-19T12:21:00.818Z,48.70
2023-07-19T12:26:01.334Z,48.50
2023-07-19T12:28:29.468Z,51.30
2023-07-19T12:30:57.873Z,50.40
2023-07-19T12:33:26.196Z,53.10
2023-07-19T12:35:54.334Z,50.40
2023-07-19T12:38:22.523Z,50.20
2023-07-19T12:40:50.747Z,51.30
2023-07-19T12:43:20.464Z,50.60
2023-07-19T12:45:48.689Z,50.80
2023-07-19T12:48:16.627Z,52.80
2023-07-19T12:50:44.652Z,51.80
2023-07-19T12:53:12.569Z,50.70
2023-07-19T12:55:40.432Z,50.70
2023-07-19T12:58:08.338Z,48.90
2023-07-19T13:00:39.114Z,47.20
2023-07-19T13:03:07.231Z,46.80
2023-07-19T13:05:35.218Z,51.00
2023-07-19T13:08:03.115Z,48.90
2023-07-19T13:10:31.072Z,50.60
2023-07-19T13:12:58.951Z,48.40
2023-07-19T13:15:27.879Z,50.80
2023-07-19T13:17:57.248Z,51.80
2023-07-19T13:20:25.601Z,50.90
2023-07-19T13:22:53.501Z,53.60
2023-07-19T13:25:21.670Z,51.90
2023-07-19T13:27:49.567Z,55.30
2023-07-19T13:30:17.680Z,58.40
2023-07-19T13:32:45.482Z,62.70
2023-07-19T13:35:53.903Z,63.10
2023-07-19T13:40:33.139Z,60.00
2023-07-19T13:43:02.414Z,57.80
2023-07-19T13:45:30.128Z,57.90
2023-07-19T13:47:57.929Z,50.60
2023-07-19T13:50:27.232Z,51.80
2023-07-19T13:52:55.065Z,51.70
2023-07-19T13:55:22.799Z,52.40
2023-07-19T13:57:50.577Z,53.00
2023-07-19T14:00:18.460Z,54.70
2023-07-19T14:02:47.479Z,52.60
2023-07-19T14:05:15.661Z,53.70
2023-07-19T14:07:44.970Z,55.00
2023-07-19T14:10:12.797Z,55.90
2023-07-19T14:12:40.611Z,54.30
2023-07-19T14:15:09.636Z,55.20
2023-07-19T14:17:37.872Z,56.10
2023-07-19T14:20:06.526Z,57.20
2023-07-19T14:22:34.315Z,60.20
2023-07-19T14:25:03.467Z,57.90
2023-07-19T14:27:31.155Z,56.70
2023-07-19T14:29:58.960Z,58.40
2023-07-19T14:34:59.873Z,57.40
2023-07-19T14:37:28.916Z,58.10
2023-07-19T14:39:56.643Z,59.00
2023-07-19T14:42:25.808Z,57.60
2023-07-19T14:44:53.520Z,57.60
2023-07-19T14:47:21.777Z,57.80
2023-07-19T14:49:49.543Z,57.70
2023-07-19T14:52:17.707Z,57.20
2023-07-19T14:54:45.446Z,58.20
2023-07-19T14:57:13.818Z,56.50
2023-07-19T14:59:46.148Z,56.50
2023-07-19T15:04:47.507Z,56.50
2023-07-19T15:07:15.415Z,55.70
2023-07-19T15:09:43.216Z,57.80
2023-07-19T15:12:11.208Z,56.30
2023-07-19T15:14:38.928Z,53.70
2023-07-19T15:17:08.337Z,55.70
2023-07-19T15:19:37.142Z,54.70
2023-07-19T15:22:04.949Z,56.00
2023-07-19T15:24:32.942Z,53.40
2023-07-19T15:27:01.230Z,54.20
2023-07-19T15:29:28.953Z,55.00
2023-07-19T15:31:56.929Z,56.00
2023-07-19T15:34:26.016Z,58.00
2023-07-19T15:36:53.910Z,59.70
2023-07-19T15:39:21.839Z,57.80
2023-07-19T15:41:49.806Z,59.20
2023-07-19T15:44:34.406Z,59.30
2023-07-19T15:47:04.386Z,59.30
2023-07-19T15:49:34.018Z,55.60
2023-07-19T15:52:03.126Z,57.20
2023-07-19T15:54:31.467Z,54.80
2023-07-19T15:56:59.349Z,55.60
2023-07-19T15:59:27.626Z,54.60
2023-07-19T16:01:56.866Z,58.00
2023-07-19T16:04:24.944Z,58.10
2023-07-19T16:06:54.077Z,59.70
2023-07-19T16:09:21.752Z,58.30
2023-07-19T16:11:49.555Z,59.60
2023-07-19T16:14:17.294Z,61.30
2023-07-19T16:16:45.095Z,59.00
2023-07-19T16:19:12.860Z,58.10
2023-07-19T16:21:40.921Z,61.80
2023-07-19T16:24:09.998Z,58.60
2023-07-19T16:26:37.769Z,60.20
2023-07-19T16:29:05.485Z,58.90
2023-07-19T16:31:33.248Z,60.60
2023-07-19T16:34:01.051Z,58.90
2023-07-19T16:36:28.765Z,58.60
2023-07-19T16:38:56.468Z,60.60
2023-07-19T16:41:25.560Z,58.20
2023-07-19T16:43:53.268Z,61.50
2023-07-19T16:46:21.250Z,59.30
2023-07-19T16:48:49.037Z,59.80
2023-07-19T16:51:16.945Z,59.70
2023-07-19T16:53:44.833Z,60.90
2023-07-19T16:56:12.595Z,61.80
2023-07-19T16:58:41.715Z,60.80
2023-07-19T17:01:11.029Z,62.40
2023-07-19T17:03:38.966Z,60.60
2023-07-19T17:06:06.844Z,59.90
2023-07-19T17:08:34.947Z,58.70
2023-07-19T17:11:02.795Z,56.20
2023-07-19T17:13:30.519Z,56.20
2023-07-19T17:16:00.886Z,56.80
2023-07-19T17:18:28.807Z,54.30
2023-07-19T17:20:56.767Z,53.20
2023-07-19T17:23:24.797Z,51.50
2023-07-19T17:25:52.969Z,53.70
2023-07-19T17:28:20.718Z,55.10
2023-07-19T17:30:48.521Z,54.70
2023-07-19T17:33:18.054Z,57.30
2023-07-19T17:35:46.146Z,56.00
2023-07-19T17:38:13.855Z,58.30
2023-07-19T17:40:41.571Z,57.30
2023-07-19T17:43:10.473Z,57.60
2023-07-19T17:45:38.236Z,53.20
2023-07-19T17:48:06.345Z,53.80
2023-07-19T17:50:35.907Z,58.50
2023-07-19T17:53:03.635Z,55.20
2023-07-19T17:55:31.321Z,56.50
2023-07-19T17:57:59.656Z,59.00
2023-07-19T18:00:27.536Z,58.90
2023-07-19T18:02:55.511Z,56.50
2023-07-19T18:05:23.297Z,59.00
2023-07-19T18:07:52.561Z,58.50
2023-07-19T18:10:20.283Z,57.80
2023-07-19T18:12:47.988Z,58.80
2023-07-19T18:15:15.751Z,60.60
2023-07-19T18:17:43.457Z,62.50
2023-07-19T18:20:11.687Z,60.20
2023-07-19T18:22:40.147Z,59.90
2023-07-19T18:25:10.219Z,61.50
2023-07-19T18:27:38.075Z,60.10
2023-07-19T18:30:07.539Z,61.40
2023-07-19T18:32:35.885Z,62.40
2023-07-19T18:35:03.954Z,63.30
2023-07-19T18:37:31.853Z,61.90
2023-07-19T18:39:59.711Z,63.20
2023-07-19T18:42:28.989Z,63.00
2023-07-19T18:44:57.095Z,63.50
2023-07-19T18:47:25.625Z,65.30
2023-07-19T18:49:53.608Z,66.60
2023-07-19T18:52:22.042Z,66.20
2023-07-19T18:54:49.965Z,67.40
2023-07-19T18:57:17.837Z,68.00
2023-07-19T18:59:48.544Z,67.90
2023-07-19T19:02:16.414Z,67.50
2023-07-19T19:04:44.338Z,68.40
2023-07-19T19:07:12.462Z,68.80
2023-07-19T19:09:40.409Z,70.30
2023-07-19T19:12:11.467Z,71.40
2023-07-19T19:14:43.104Z,70.30
2023-07-19T19:17:13.407Z,70.70
2023-07-19T19:19:41.561Z,70.90
2023-07-19T19:22:09.598Z,71.50
2023-07-19T19:24:37.491Z,71.60
2023-07-19T19:27:06.762Z,71.40
2023-07-19T19:29:35.115Z,72.10
2023-07-19T19:32:03.321Z,72.50
2023-07-19T19:34:32.931Z,72.60
2023-07-19T19:37:00.798Z,72.90
2023-07-19T19:39:30.384Z,73.10
2023-07-19T19:41:58.911Z,73.40
2023-07-19T19:44:26.853Z,73.80
2023-07-19T19:46:55.553Z,74.40
2023-07-19T19:49:23.531Z,74.30
2023-07-19T19:51:53.143Z,74.60
2023-07-19T19:54:21.394Z,74.70
2023-07-19T19:56:51.405Z,75.30
2023-07-19T19:59:21.758Z,75.50
2023-07-19T20:01:51.612Z,75.10
2023-07-19T20:04:39.299Z,74.50
2023-07-19T20:07:09.130Z,75.30
2023-07-19T20:09:47.272Z,75.90
2023-07-19T20:12:19.478Z,75.50
2023-07-19T20:14:47.798Z,75.30
2023-07-19T20:17:15.814Z,75.30
2023-07-19T20:19:53.148Z,74.70
2023-07-19T20:22:22.978Z,74.80
2023-07-19T20:24:56.486Z,74.50
2023-07-19T20:30:10.615Z,74.50
2023-07-19T20:35:10.737Z,74.30
2023-07-19T20:37:40.158Z,75.10
2023-07-19T20:42:43.357Z,75.00
2023-07-19T20:45:13.584Z,74.70
2023-07-19T20:50:18.117Z,74.60
2023-07-19T20:52:47.410Z,74.70
2023-07-19T20:55:15.285Z,74.90
2023-07-19T20:57:43.224Z,74.60
2023-07-19T21:00:11.956Z,74.70
2023-07-19T21:02:39.956Z,75.20
2023-07-19T21:05:08.799Z,75.30
2023-07-19T21:07:36.751Z,75.40
2023-07-19T21:10:06.725Z,74.90
2023-07-19T21:12:34.674Z,74.90
2023-07-19T21:15:03.056Z,74.70
2023-07-19T21:17:31.039Z,74.20
2023-07-19T21:19:59.069Z,74.80
2023-07-19T21:22:27.050Z,75.00
2023-07-19T21:27:27.195Z,75.70
2023-07-19T21:29:55.652Z,75.50
2023-07-19T21:32:24.054Z,75.70
2023-07-19T21:34:52.035Z,76.10
2023-07-19T21:37:21.763Z,76.40
2023-07-19T21:39:50.196Z,76.70
2023-07-19T21:42:18.641Z,76.70
2023-07-19T21:44:48.748Z,77.00
2023-07-19T21:47:16.910Z,76.90
2023-07-19T21:49:44.800Z,77.00
2023-07-19T21:52:12.954Z,76.90
2023-07-19T21:54:40.879Z,77.10
2023-07-19T21:57:08.817Z,75.70
2023-07-19T21:59:37.429Z,76.10
2023-07-19T22:02:07.722Z,76.30
2023-07-19T22:04:35.857Z,77.00
2023-07-19T22:07:04.343Z,77.00
2023-07-19T22:09:32.890Z,76.00
2023-07-19T22:12:00.724Z,75.90
2023-07-19T22:14:28.623Z,75.40
2023-07-19T22:16:57.589Z,75.60
2023-07-19T22:19:26.906Z,73.80
2023-07-19T22:21:54.794Z,74.00
2023-07-19T22:24:22.726Z,73.40
2023-07-19T22:26:50.643Z,73.60
2023-07-19T22:29:18.665Z,72.80
2023-07-19T22:31:47.124Z,73.30
2023-07-19T22:34:15.174Z,73.00
2023-07-19T22:36:44.748Z,73.20
2023-07-19T22:39:12.724Z,72.70
2023-07-19T22:41:40.681Z,72.80
2023-07-19T22:44:08.838Z,73.00
2023-07-19T22:46:36.823Z,73.30
2023-07-19T22:49:04.807Z,73.10
2023-07-19T22:51:32.927Z,73.30
2023-07-19T22:54:02.229Z,72.60
2023-07-19T22:56:30.092Z,72.90
2023-07-19T22:58:58.349Z,72.30
2023-07-19T23:01:26.417Z,72.30
2023-07-19T23:03:54.877Z,72.50
2023-07-19T23:06:23.521Z,72.70
2023-07-19T23:08:51.648Z,72.80
2023-07-19T23:11:20.880Z,72.30
2023-07-19T23:13:48.711Z,72.80
2023-07-19T23:16:16.641Z,72.60
2023-07-19T23:18:44.509Z,73.00
2023-07-19T23:21:12.418Z,74.00
2023-07-19T23:23:40.424Z,73.00
2023-07-19T23:26:08.419Z,73.10
2023-07-19T23:28:38.773Z,73.30
2023-07-19T23:31:08.528Z,73.70
2023-07-19T23:33:36.623Z,74.00
2023-07-19T23:36:05.990Z,73.90
2023-07-19T23:38:33.885Z,75.30
2023-07-19T23:41:01.832Z,75.20
2023-07-19T23:43:30.051Z,75.90
2023-07-19T23:45:59.347Z,75.90
2023-07-19T23:48:27.765Z,76.30
2023-07-19T23:50:55.726Z,76.80
2023-07-19T23:53:23.673Z,77.10
2023-07-19T23:55:51.584Z,76.90
2023-07-19T23:58:20.500Z,76.80
